sensor_id;sensor_type;location;lat;lon;timestamp;pressure;altitude;pressure_sealevel;temperature;humidity
51099;BME280;37146;48.210;16.234;2022-07-25T00:01:25;98978.63;;;18.07;85.38
51099;BME280;37146;48.210;16.234;2022-07-25T00:03:50;98975.41;;;18.14;85.29
51099;BME280;37146;48.210;16.234;2022-07-25T00:06:16;98972.00;;;18.00;84.98
51099;BME280;37146;48.210;16.234;2022-07-25T00:08:41;98976.19;;;17.93;85.68
51099;BME280;37146;48.210;16.234;2022-07-25T00:11:06;98970.53;;;17.96;85.49
51099;BME280;37146;48.210;16.234;2022-07-25T00:13:32;98966.81;;;17.97;85.53
51099;BME280;37146;48.210;16.234;2022-07-25T00:15:57;98971.25;;;17.87;85.85
51099;BME280;37146;48.210;16.234;2022-07-25T00:18:23;98966.59;;;17.89;85.67
51099;BME280;37146;48.210;16.234;2022-07-25T00:20:48;98969.56;;;17.86;86.43
51099;BME280;37146;48.210;16.234;2022-07-25T00:23:14;98970.44;;;17.75;86.54
51099;BME280;37146;48.210;16.234;2022-07-25T00:25:39;98967.50;;;17.67;87.22
51099;BME280;37146;48.210;16.234;2022-07-25T00:28:04;98969.34;;;17.66;87.40
51099;BME280;37146;48.210;16.234;2022-07-25T00:30:30;98965.91;;;17.64;87.91
51099;BME280;37146;48.210;16.234;2022-07-25T00:32:55;98960.75;;;17.61;87.28
51099;BME280;37146;48.210;16.234;2022-07-25T00:35:20;98961.25;;;17.55;87.99
51099;BME280;37146;48.210;16.234;2022-07-25T00:37:46;98964.94;;;17.42;88.85
51099;BME280;37146;48.210;16.234;2022-07-25T00:40:11;98962.22;;;17.54;88.44
51099;BME280;37146;48.210;16.234;2022-07-25T00:42:37;98957.84;;;17.53;88.68
51099;BME280;37146;48.210;16.234;2022-07-25T00:45:03;98952.69;;;17.38;88.52
51099;BME280;37146;48.210;16.234;2022-07-25T00:47:28;98955.59;;;17.46;87.91
51099;BME280;37146;48.210;16.234;2022-07-25T00:49:54;98957.34;;;17.36;88.99
51099;BME280;37146;48.210;16.234;2022-07-25T00:52:19;98955.47;;;17.37;88.36
51099;BME280;37146;48.210;16.234;2022-07-25T00:54:45;98956.72;;;17.44;88.45
51099;BME280;37146;48.210;16.234;2022-07-25T00:57:11;98948.09;;;17.50;87.99
51099;BME280;37146;48.210;16.234;2022-07-25T00:59:36;98946.66;;;17.46;87.56
51099;BME280;37146;48.210;16.234;2022-07-25T01:02:01;98953.06;;;17.34;89.27
51099;BME280;37146;48.210;16.234;2022-07-25T01:04:27;98949.00;;;17.28;88.96
51099;BME280;37146;48.210;16.234;2022-07-25T01:06:53;98949.38;;;17.35;88.55
51099;BME280;37146;48.210;16.234;2022-07-25T01:09:19;98942.25;;;17.34;88.70
51099;BME280;37146;48.210;16.234;2022-07-25T01:11:44;98942.63;;;17.29;89.78
51099;BME280;37146;48.210;16.234;2022-07-25T01:14:10;98945.94;;;17.33;88.98
51099;BME280;37146;48.210;16.234;2022-07-25T01:16:35;98929.34;;;17.26;89.05
51099;BME280;37146;48.210;16.234;2022-07-25T01:19:01;98936.09;;;17.31;89.07
51099;BME280;37146;48.210;16.234;2022-07-25T01:21:26;98931.66;;;17.30;89.88
51099;BME280;37146;48.210;16.234;2022-07-25T01:23:51;98932.19;;;17.24;88.91
51099;BME280;37146;48.210;16.234;2022-07-25T01:26:17;98933.63;;;17.17;89.08
51099;BME280;37146;48.210;16.234;2022-07-25T01:28:42;98926.88;;;17.11;89.80
51099;BME280;37146;48.210;16.234;2022-07-25T01:31:08;98926.88;;;17.11;89.52
51099;BME280;37146;48.210;16.234;2022-07-25T01:33:33;98920.22;;;16.93;91.52
51099;BME280;37146;48.210;16.234;2022-07-25T01:35:59;98916.03;;;16.89;90.47
51099;BME280;37146;48.210;16.234;2022-07-25T01:38:25;98914.81;;;16.93;91.18
51099;BME280;37146;48.210;16.234;2022-07-25T01:40:50;98913.34;;;16.89;91.14
51099;BME280;37146;48.210;16.234;2022-07-25T01:43:15;98915.31;;;16.87;91.32
51099;BME280;37146;48.210;16.234;2022-07-25T01:45:41;98915.56;;;16.83;91.64
51099;BME280;37146;48.210;16.234;2022-07-25T01:48:06;98909.03;;;16.75;92.18
51099;BME280;37146;48.210;16.234;2022-07-25T01:50:32;98913.97;;;16.81;91.74
51099;BME280;37146;48.210;16.234;2022-07-25T01:52:57;98898.22;;;16.75;92.12
51099;BME280;37146;48.210;16.234;2022-07-25T01:55:23;98897.63;;;16.71;92.12
51099;BME280;37146;48.210;16.234;2022-07-25T01:57:48;98895.53;;;16.75;91.67
51099;BME280;37146;48.210;16.234;2022-07-25T02:00:14;98902.06;;;16.83;91.76
51099;BME280;37146;48.210;16.234;2022-07-25T02:02:41;98900.81;;;16.76;91.42
51099;BME280;37146;48.210;16.234;2022-07-25T02:05:09;98898.22;;;16.75;91.32
51099;BME280;37146;48.210;16.234;2022-07-25T02:07:35;98892.84;;;16.75;91.62
51099;BME280;37146;48.210;16.234;2022-07-25T02:10:00;98895.16;;;16.68;91.75
51099;BME280;37146;48.210;16.234;2022-07-25T02:12:26;98905.50;;;16.74;91.91
51099;BME280;37146;48.210;16.234;2022-07-25T02:14:51;98904.50;;;16.64;92.12
51099;BME280;37146;48.210;16.234;2022-07-25T02:17:17;98902.84;;;16.50;93.58
51099;BME280;37146;48.210;16.234;2022-07-25T02:19:42;98901.81;;;16.64;92.06
51099;BME280;37146;48.210;16.234;2022-07-25T02:22:08;98904.34;;;16.54;92.95
51099;BME280;37146;48.210;16.234;2022-07-25T02:24:34;98900.78;;;16.42;93.90
51099;BME280;37146;48.210;16.234;2022-07-25T02:27:01;98900.88;;;16.41;93.94
51099;BME280;37146;48.210;16.234;2022-07-25T02:29:27;98906.06;;;16.44;93.00
51099;BME280;37146;48.210;16.234;2022-07-25T02:31:52;98897.78;;;16.34;94.10
51099;BME280;37146;48.210;16.234;2022-07-25T02:34:17;98894.25;;;16.33;94.13
51099;BME280;37146;48.210;16.234;2022-07-25T02:36:43;98904.16;;;16.33;94.02
51099;BME280;37146;48.210;16.234;2022-07-25T02:39:10;98899.25;;;16.27;95.50
51099;BME280;37146;48.210;16.234;2022-07-25T02:41:36;98901.56;;;16.20;95.70
51099;BME280;37146;48.210;16.234;2022-07-25T02:44:01;98896.72;;;16.36;94.00
51099;BME280;37146;48.210;16.234;2022-07-25T02:46:27;98902.22;;;16.35;94.60
51099;BME280;37146;48.210;16.234;2022-07-25T02:48:52;98905.63;;;16.26;95.42
51099;BME280;37146;48.210;16.234;2022-07-25T02:51:17;98898.13;;;16.18;94.98
51099;BME280;37146;48.210;16.234;2022-07-25T02:53:43;98910.38;;;16.11;95.21
51099;BME280;37146;48.210;16.234;2022-07-25T02:56:08;98907.81;;;16.09;95.65
51099;BME280;37146;48.210;16.234;2022-07-25T02:58:34;98908.13;;;16.04;95.90
51099;BME280;37146;48.210;16.234;2022-07-25T03:00:59;98908.66;;;16.10;95.74
51099;BME280;37146;48.210;16.234;2022-07-25T03:03:25;98912.72;;;16.15;94.67
51099;BME280;37146;48.210;16.234;2022-07-25T03:05:50;98916.34;;;16.03;95.43
51099;BME280;37146;48.210;16.234;2022-07-25T03:08:15;98909.34;;;16.00;96.21
51099;BME280;37146;48.210;16.234;2022-07-25T03:10:41;98904.88;;;15.88;97.13
51099;BME280;37146;48.210;16.234;2022-07-25T03:13:07;98901.84;;;15.92;97.41
51099;BME280;37146;48.210;16.234;2022-07-25T03:15:32;98901.13;;;16.02;95.59
51099;BME280;37146;48.210;16.234;2022-07-25T03:17:57;98900.66;;;15.97;96.50
51099;BME280;37146;48.210;16.234;2022-07-25T03:20:23;98901.88;;;15.80;97.09
51099;BME280;37146;48.210;16.234;2022-07-25T03:22:48;98900.78;;;15.82;97.53
51099;BME280;37146;48.210;16.234;2022-07-25T03:25:13;98902.50;;;15.83;97.64
51099;BME280;37146;48.210;16.234;2022-07-25T03:27:39;98899.91;;;15.95;96.72
51099;BME280;37146;48.210;16.234;2022-07-25T03:30:05;98897.53;;;15.90;96.58
51099;BME280;37146;48.210;16.234;2022-07-25T03:32:30;98897.91;;;15.85;97.03
51099;BME280;37146;48.210;16.234;2022-07-25T03:34:56;98899.28;;;15.78;98.21
51099;BME280;37146;48.210;16.234;2022-07-25T03:37:21;98886.69;;;15.79;97.79
51099;BME280;37146;48.210;16.234;2022-07-25T03:39:46;98885.78;;;15.78;97.49
51099;BME280;37146;48.210;16.234;2022-07-25T03:42:12;98887.53;;;15.79;98.35
51099;BME280;37146;48.210;16.234;2022-07-25T03:44:37;98886.13;;;15.86;96.47
51099;BME280;37146;48.210;16.234;2022-07-25T03:47:04;98891.53;;;15.73;97.44
51099;BME280;37146;48.210;16.234;2022-07-25T03:49:29;98890.22;;;15.79;97.93
51099;BME280;37146;48.210;16.234;2022-07-25T03:51:55;98891.88;;;15.69;97.85
51099;BME280;37146;48.210;16.234;2022-07-25T03:54:20;98890.22;;;15.55;98.38
51099;BME280;37146;48.210;16.234;2022-07-25T03:56:48;98892.56;;;15.59;98.25
51099;BME280;37146;48.210;16.234;2022-07-25T03:59:16;98896.13;;;15.60;98.08
51099;BME280;37146;48.210;16.234;2022-07-25T04:01:43;98895.06;;;15.63;98.82
51099;BME280;37146;48.210;16.234;2022-07-25T04:04:09;98893.00;;;15.66;98.78
51099;BME280;37146;48.210;16.234;2022-07-25T04:06:35;98888.00;;;15.73;98.83
51099;BME280;37146;48.210;16.234;2022-07-25T04:09:00;98888.94;;;15.85;97.38
51099;BME280;37146;48.210;16.234;2022-07-25T04:11:26;98888.69;;;15.88;97.94
51099;BME280;37146;48.210;16.234;2022-07-25T04:13:54;98883.22;;;16.01;96.84
51099;BME280;37146;48.210;16.234;2022-07-25T04:16:19;98885.69;;;16.04;96.86
51099;BME280;37146;48.210;16.234;2022-07-25T04:18:45;98882.47;;;15.99;97.22
51099;BME280;37146;48.210;16.234;2022-07-25T04:21:10;98873.72;;;16.08;97.82
51099;BME280;37146;48.210;16.234;2022-07-25T04:23:36;98870.03;;;16.09;97.43
51099;BME280;37146;48.210;16.234;2022-07-25T04:26:02;98870.88;;;16.10;97.77
51099;BME280;37146;48.210;16.234;2022-07-25T04:28:28;98865.13;;;16.14;97.67
51099;BME280;37146;48.210;16.234;2022-07-25T04:30:53;98870.69;;;16.24;96.71
51099;BME280;37146;48.210;16.234;2022-07-25T04:33:20;98870.06;;;16.20;98.35
51099;BME280;37146;48.210;16.234;2022-07-25T04:35:46;98863.91;;;16.18;98.03
51099;BME280;37146;48.210;16.234;2022-07-25T04:38:11;98874.22;;;16.25;97.33
51099;BME280;37146;48.210;16.234;2022-07-25T04:40:37;98871.56;;;16.36;96.17
51099;BME280;37146;48.210;16.234;2022-07-25T04:43:03;98867.66;;;16.40;94.93
51099;BME280;37146;48.210;16.234;2022-07-25T04:45:29;98863.47;;;16.47;95.55
51099;BME280;37146;48.210;16.234;2022-07-25T04:47:54;98875.25;;;16.58;95.01
51099;BME280;37146;48.210;16.234;2022-07-25T04:50:20;98876.63;;;16.63;93.97
51099;BME280;37146;48.210;16.234;2022-07-25T04:52:45;98874.53;;;16.67;94.97
51099;BME280;37146;48.210;16.234;2022-07-25T04:55:10;98870.63;;;16.71;95.17
51099;BME280;37146;48.210;16.234;2022-07-25T04:57:36;98866.34;;;16.80;94.17
51099;BME280;37146;48.210;16.234;2022-07-25T05:00:04;98874.53;;;16.90;93.45
51099;BME280;37146;48.210;16.234;2022-07-25T05:02:30;98867.19;;;16.92;93.35
51099;BME280;37146;48.210;16.234;2022-07-25T05:04:56;98862.28;;;17.08;92.40
51099;BME280;37146;48.210;16.234;2022-07-25T05:07:21;98864.25;;;17.18;92.44
51099;BME280;37146;48.210;16.234;2022-07-25T05:09:47;98869.13;;;17.35;91.23
51099;BME280;37146;48.210;16.234;2022-07-25T05:12:12;98858.41;;;17.45;90.74
51099;BME280;37146;48.210;16.234;2022-07-25T05:14:38;98858.50;;;17.55;90.55
51099;BME280;37146;48.210;16.234;2022-07-25T05:17:03;98855.88;;;17.65;91.83
51099;BME280;37146;48.210;16.234;2022-07-25T05:19:29;98848.84;;;17.73;89.57
51099;BME280;37146;48.210;16.234;2022-07-25T05:21:54;98848.66;;;17.86;88.55
51099;BME280;37146;48.210;16.234;2022-07-25T05:24:19;98843.81;;;18.01;84.42
51099;BME280;37146;48.210;16.234;2022-07-25T05:26:47;98846.66;;;18.21;84.25
51099;BME280;37146;48.210;16.234;2022-07-25T05:29:12;98841.50;;;18.39;83.50
51099;BME280;37146;48.210;16.234;2022-07-25T05:31:38;98845.00;;;18.51;82.21
51099;BME280;37146;48.210;16.234;2022-07-25T05:34:03;98843.66;;;18.66;80.49
51099;BME280;37146;48.210;16.234;2022-07-25T05:36:28;98841.41;;;18.81;80.39
51099;BME280;37146;48.210;16.234;2022-07-25T05:38:54;98836.66;;;18.95;81.23
51099;BME280;37146;48.210;16.234;2022-07-25T05:41:19;98838.00;;;19.10;80.46
51099;BME280;37146;48.210;16.234;2022-07-25T05:43:45;98838.88;;;19.21;80.16
51099;BME280;37146;48.210;16.234;2022-07-25T05:46:13;98828.75;;;19.33;79.46
51099;BME280;37146;48.210;16.234;2022-07-25T05:48:39;98821.06;;;19.47;77.20
51099;BME280;37146;48.210;16.234;2022-07-25T05:51:04;98829.81;;;19.81;69.61
51099;BME280;37146;48.210;16.234;2022-07-25T05:53:30;98822.81;;;20.17;68.45
51099;BME280;37146;48.210;16.234;2022-07-25T05:55:55;98829.31;;;20.54;65.41
51099;BME280;37146;48.210;16.234;2022-07-25T05:58:21;98821.81;;;20.76;63.91
51099;BME280;37146;48.210;16.234;2022-07-25T06:00:47;98821.88;;;20.94;63.56
51099;BME280;37146;48.210;16.234;2022-07-25T06:03:12;98817.94;;;21.06;63.35
51099;BME280;37146;48.210;16.234;2022-07-25T06:05:37;98816.44;;;21.40;59.01
51099;BME280;37146;48.210;16.234;2022-07-25T06:08:03;98815.69;;;21.47;57.42
51099;BME280;37146;48.210;16.234;2022-07-25T06:10:28;98821.63;;;21.61;56.07
51099;BME280;37146;48.210;16.234;2022-07-25T06:12:54;98821.06;;;21.75;55.08
51099;BME280;37146;48.210;16.234;2022-07-25T06:15:19;98816.09;;;21.89;53.55
51099;BME280;37146;48.210;16.234;2022-07-25T06:17:44;98811.72;;;21.96;52.48
51099;BME280;37146;48.210;16.234;2022-07-25T06:20:10;98813.41;;;22.15;51.76
51099;BME280;37146;48.210;16.234;2022-07-25T06:22:37;98814.28;;;22.16;50.92
51099;BME280;37146;48.210;16.234;2022-07-25T06:25:03;98806.13;;;22.16;50.70
51099;BME280;37146;48.210;16.234;2022-07-25T06:27:28;98816.66;;;22.19;50.97
51099;BME280;37146;48.210;16.234;2022-07-25T06:29:54;98807.22;;;22.31;50.88
51099;BME280;37146;48.210;16.234;2022-07-25T06:32:19;98808.22;;;22.48;49.64
51099;BME280;37146;48.210;16.234;2022-07-25T06:34:44;98805.38;;;22.58;50.62
51099;BME280;37146;48.210;16.234;2022-07-25T06:37:10;98801.38;;;22.70;49.26
51099;BME280;37146;48.210;16.234;2022-07-25T06:39:35;98802.41;;;22.78;49.04
51099;BME280;37146;48.210;16.234;2022-07-25T06:42:00;98802.75;;;22.83;48.36
51099;BME280;37146;48.210;16.234;2022-07-25T06:44:31;98793.91;;;22.81;48.56
51099;BME280;37146;48.210;16.234;2022-07-25T06:46:56;98798.72;;;22.95;49.05
51099;BME280;37146;48.210;16.234;2022-07-25T06:49:21;98793.97;;;22.97;49.60
51099;BME280;37146;48.210;16.234;2022-07-25T06:51:47;98795.19;;;23.03;48.90
51099;BME280;37146;48.210;16.234;2022-07-25T06:54:12;98796.59;;;23.15;48.93
51099;BME280;37146;48.210;16.234;2022-07-25T06:56:39;98788.97;;;23.27;47.64
51099;BME280;37146;48.210;16.234;2022-07-25T06:59:05;98792.41;;;23.29;48.27
51099;BME280;37146;48.210;16.234;2022-07-25T07:01:30;98777.22;;;23.27;48.17
51099;BME280;37146;48.210;16.234;2022-07-25T07:03:55;98777.59;;;23.40;48.96
51099;BME280;37146;48.210;16.234;2022-07-25T07:06:21;98783.56;;;23.44;47.86
51099;BME280;37146;48.210;16.234;2022-07-25T07:08:46;98787.00;;;23.54;49.13
51099;BME280;37146;48.210;16.234;2022-07-25T07:11:12;98781.88;;;23.68;48.28
51099;BME280;37146;48.210;16.234;2022-07-25T07:13:39;98774.22;;;23.71;47.28
51099;BME280;37146;48.210;16.234;2022-07-25T07:16:05;98771.13;;;23.91;46.74
51099;BME280;37146;48.210;16.234;2022-07-25T07:18:30;98774.06;;;23.98;47.26
51099;BME280;37146;48.210;16.234;2022-07-25T07:20:55;98767.91;;;23.96;47.00
51099;BME280;37146;48.210;16.234;2022-07-25T07:23:21;98767.75;;;24.05;47.58
51099;BME280;37146;48.210;16.234;2022-07-25T07:25:46;98775.59;;;24.17;46.94
51099;BME280;37146;48.210;16.234;2022-07-25T07:28:12;98767.88;;;24.29;46.45
51099;BME280;37146;48.210;16.234;2022-07-25T07:30:38;98760.44;;;24.54;45.07
51099;BME280;37146;48.210;16.234;2022-07-25T07:33:03;98761.50;;;24.45;45.05
51099;BME280;37146;48.210;16.234;2022-07-25T07:35:29;98758.41;;;24.56;45.74
51099;BME280;37146;48.210;16.234;2022-07-25T07:37:54;98765.91;;;24.70;43.72
51099;BME280;37146;48.210;16.234;2022-07-25T07:40:20;98759.22;;;24.73;42.68
51099;BME280;37146;48.210;16.234;2022-07-25T07:42:47;98754.78;;;24.72;42.97
51099;BME280;37146;48.210;16.234;2022-07-25T07:47:40;98758.38;;;25.12;42.50
51099;BME280;37146;48.210;16.234;2022-07-25T07:50:07;98751.22;;;25.35;42.21
51099;BME280;37146;48.210;16.234;2022-07-25T07:52:32;98754.69;;;25.28;42.15
51099;BME280;37146;48.210;16.234;2022-07-25T07:54:58;98748.63;;;25.41;42.48
51099;BME280;37146;48.210;16.234;2022-07-25T07:57:42;98748.81;;;25.63;42.07
51099;BME280;37146;48.210;16.234;2022-07-25T08:00:08;98742.16;;;25.81;40.97
51099;BME280;37146;48.210;16.234;2022-07-25T08:02:50;98735.47;;;25.83;41.46
51099;BME280;37146;48.210;16.234;2022-07-25T08:05:22;98745.28;;;25.77;41.13
51099;BME280;37146;48.210;16.234;2022-07-25T08:07:49;98733.22;;;25.87;40.97
51099;BME280;37146;48.210;16.234;2022-07-25T08:10:18;98728.19;;;26.14;40.45
51099;BME280;37146;48.210;16.234;2022-07-25T08:12:43;98729.34;;;26.34;39.52
51099;BME280;37146;48.210;16.234;2022-07-25T08:15:09;98721.88;;;26.43;39.13
51099;BME280;37146;48.210;16.234;2022-07-25T08:17:35;98724.03;;;26.48;38.37
51099;BME280;37146;48.210;16.234;2022-07-25T08:20:01;98721.22;;;26.56;38.76
51099;BME280;37146;48.210;16.234;2022-07-25T08:22:35;98721.09;;;26.64;38.70
51099;BME280;37146;48.210;16.234;2022-07-25T08:25:00;98718.38;;;26.79;38.74
51099;BME280;37146;48.210;16.234;2022-07-25T08:27:26;98718.09;;;26.89;37.53
51099;BME280;37146;48.210;16.234;2022-07-25T08:29:51;98712.78;;;26.88;39.21
51099;BME280;37146;48.210;16.234;2022-07-25T08:32:17;98720.13;;;27.02;37.86
51099;BME280;37146;48.210;16.234;2022-07-25T08:34:42;98707.75;;;27.28;37.73
51099;BME280;37146;48.210;16.234;2022-07-25T08:37:07;98708.00;;;27.33;37.00
51099;BME280;37146;48.210;16.234;2022-07-25T08:39:33;98703.91;;;27.22;37.76
51099;BME280;37146;48.210;16.234;2022-07-25T08:41:58;98708.38;;;27.45;36.94
51099;BME280;37146;48.210;16.234;2022-07-25T08:44:26;98696.31;;;27.46;36.98
51099;BME280;37146;48.210;16.234;2022-07-25T08:46:56;98688.41;;;27.58;36.92
51099;BME280;37146;48.210;16.234;2022-07-25T08:49:22;98689.97;;;27.67;37.38
51099;BME280;37146;48.210;16.234;2022-07-25T08:51:48;98694.28;;;27.76;37.49
51099;BME280;37146;48.210;16.234;2022-07-25T08:54:15;98689.28;;;27.87;36.40
51099;BME280;37146;48.210;16.234;2022-07-25T08:56:41;98692.00;;;28.08;37.10
51099;BME280;37146;48.210;16.234;2022-07-25T08:59:06;98679.84;;;28.24;35.69
51099;BME280;37146;48.210;16.234;2022-07-25T09:01:31;98683.28;;;28.33;35.97
51099;BME280;37146;48.210;16.234;2022-07-25T09:03:57;98684.06;;;28.20;35.79
51099;BME280;37146;48.210;16.234;2022-07-25T09:06:22;98673.94;;;28.28;35.73
51099;BME280;37146;48.210;16.234;2022-07-25T09:08:55;98663.03;;;28.41;35.29
51099;BME280;37146;48.210;16.234;2022-07-25T09:11:33;98667.03;;;28.45;36.26
51099;BME280;37146;48.210;16.234;2022-07-25T09:16:34;98656.88;;;28.94;35.31
51099;BME280;37146;48.210;16.234;2022-07-25T09:19:08;98664.38;;;29.21;34.73
51099;BME280;37146;48.210;16.234;2022-07-25T09:21:35;98658.81;;;28.94;36.12
51099;BME280;37146;48.210;16.234;2022-07-25T09:24:08;98651.41;;;29.01;35.93
51099;BME280;37146;48.210;16.234;2022-07-25T09:26:51;98643.44;;;29.40;35.50
51099;BME280;37146;48.210;16.234;2022-07-25T09:29:18;98644.94;;;29.56;34.38
51099;BME280;37146;48.210;16.234;2022-07-25T09:31:43;98643.03;;;29.63;34.49
51099;BME280;37146;48.210;16.234;2022-07-25T09:34:10;98634.75;;;29.83;34.89
51099;BME280;37146;48.210;16.234;2022-07-25T09:36:52;98639.00;;;29.86;34.51
51099;BME280;37146;48.210;16.234;2022-07-25T09:39:18;98636.22;;;30.06;34.73
51099;BME280;37146;48.210;16.234;2022-07-25T09:41:44;98634.13;;;29.95;34.66
51099;BME280;37146;48.210;16.234;2022-07-25T09:44:19;98625.84;;;29.95;34.90
51099;BME280;37146;48.210;16.234;2022-07-25T09:46:47;98632.09;;;30.35;35.46
51099;BME280;37146;48.210;16.234;2022-07-25T09:49:12;98624.56;;;30.69;34.02
51099;BME280;37146;48.210;16.234;2022-07-25T09:51:39;98627.09;;;31.10;34.20
51099;BME280;37146;48.210;16.234;2022-07-25T09:54:04;98614.28;;;31.22;33.28
51099;BME280;37146;48.210;16.234;2022-07-25T09:56:31;98619.25;;;31.13;33.50
51099;BME280;37146;48.210;16.234;2022-07-25T09:58:57;98629.34;;;30.94;34.26
51099;BME280;37146;48.210;16.234;2022-07-25T10:01:28;98627.66;;;30.34;35.31
51099;BME280;37146;48.210;16.234;2022-07-25T10:04:18;98624.94;;;30.80;34.51
51099;BME280;37146;48.210;16.234;2022-07-25T10:07:07;98607.09;;;30.82;34.31
51099;BME280;37146;48.210;16.234;2022-07-25T10:09:43;98615.84;;;31.18;34.51
51099;BME280;37146;48.210;16.234;2022-07-25T10:12:11;98609.78;;;31.28;34.57
51099;BME280;37146;48.210;16.234;2022-07-25T10:14:37;98602.75;;;31.57;33.92
51099;BME280;37146;48.210;16.234;2022-07-25T10:17:03;98599.28;;;31.69;34.47
51099;BME280;37146;48.210;16.234;2022-07-25T10:19:43;98605.16;;;31.98;34.16
51099;BME280;37146;48.210;16.234;2022-07-25T10:22:10;98596.25;;;31.96;33.52
51099;BME280;37146;48.210;16.234;2022-07-25T10:24:37;98609.59;;;31.29;34.79
51099;BME280;37146;48.210;16.234;2022-07-25T10:27:10;98592.94;;;31.61;34.61
51099;BME280;37146;48.210;16.234;2022-07-25T10:29:40;98588.16;;;31.75;34.29
51099;BME280;37146;48.210;16.234;2022-07-25T10:32:10;98587.50;;;32.36;33.29
51099;BME280;37146;48.210;16.234;2022-07-25T10:34:37;98589.69;;;32.64;33.78
51099;BME280;37146;48.210;16.234;2022-07-25T10:37:16;98581.09;;;32.17;33.85
51099;BME280;37146;48.210;16.234;2022-07-25T10:39:44;98581.19;;;32.47;33.44
51099;BME280;37146;48.210;16.234;2022-07-25T10:42:15;98567.91;;;32.68;33.12
51099;BME280;37146;48.210;16.234;2022-07-25T10:45:15;98569.84;;;32.86;33.36
51099;BME280;37146;48.210;16.234;2022-07-25T10:47:34;98575.69;;;33.20;33.25
51099;BME280;37146;48.210;16.234;2022-07-25T10:50:09;98564.31;;;33.40;32.79
51099;BME280;37146;48.210;16.234;2022-07-25T10:52:40;98557.91;;;33.52;32.24
51099;BME280;37146;48.210;16.234;2022-07-25T10:55:06;98567.59;;;33.19;32.69
51099;BME280;37146;48.210;16.234;2022-07-25T10:57:32;98560.47;;;33.89;31.76
51099;BME280;37146;48.210;16.234;2022-07-25T11:00:06;98568.22;;;34.28;30.94
51099;BME280;37146;48.210;16.234;2022-07-25T11:02:32;98560.97;;;34.38;30.72
51099;BME280;37146;48.210;16.234;2022-07-25T11:04:59;98553.69;;;35.07;29.75
51099;BME280;37146;48.210;16.234;2022-07-25T11:07:25;98529.66;;;35.47;29.47
51099;BME280;37146;48.210;16.234;2022-07-25T11:09:57;98531.03;;;36.28;28.89
51099;BME280;37146;48.210;16.234;2022-07-25T11:12:23;98527.38;;;37.32;27.23
51099;BME280;37146;48.210;16.234;2022-07-25T11:14:49;98540.19;;;36.73;27.74
51099;BME280;37146;48.210;16.234;2022-07-25T11:17:22;98522.25;;;37.19;27.53
51099;BME280;37146;48.210;16.234;2022-07-25T11:22:26;98507.59;;;37.77;26.08
51099;BME280;37146;48.210;16.234;2022-07-25T11:24:52;98518.13;;;38.07;26.08
51099;BME280;37146;48.210;16.234;2022-07-25T11:27:23;98498.56;;;38.12;26.23
51099;BME280;37146;48.210;16.234;2022-07-25T11:29:49;98496.28;;;37.51;26.48
51099;BME280;37146;48.210;16.234;2022-07-25T11:32:15;98494.44;;;38.20;26.09
51099;BME280;37146;48.210;16.234;2022-07-25T11:34:52;98499.56;;;38.59;25.47
51099;BME280;37146;48.210;16.234;2022-07-25T11:37:18;98481.13;;;37.84;25.70
51099;BME280;37146;48.210;16.234;2022-07-25T11:39:45;98484.06;;;37.62;26.31
51099;BME280;37146;48.210;16.234;2022-07-25T11:42:16;98484.78;;;36.77;27.72
51099;BME280;37146;48.210;16.234;2022-07-25T11:44:47;98475.09;;;36.85;27.29
51099;BME280;37146;48.210;16.234;2022-07-25T11:47:27;98475.88;;;37.07;27.46
51099;BME280;37146;48.210;16.234;2022-07-25T11:49:55;98471.47;;;37.17;27.13
51099;BME280;37146;48.210;16.234;2022-07-25T11:52:35;98463.47;;;36.60;28.30
51099;BME280;37146;48.210;16.234;2022-07-25T11:57:31;98460.66;;;36.11;28.41
51099;BME280;37146;48.210;16.234;2022-07-25T11:59:59;98447.81;;;36.32;27.98
51099;BME280;37146;48.210;16.234;2022-07-25T12:02:30;98454.00;;;35.89;28.66
51099;BME280;37146;48.210;16.234;2022-07-25T12:04:58;98450.13;;;35.90;28.76
51099;BME280;37146;48.210;16.234;2022-07-25T12:07:53;98454.06;;;36.17;28.37
51099;BME280;37146;48.210;16.234;2022-07-25T12:10:34;98438.66;;;35.25;29.59
51099;BME280;37146;48.210;16.234;2022-07-25T12:13:01;98431.09;;;35.82;28.62
51099;BME280;37146;48.210;16.234;2022-07-25T12:15:41;98434.41;;;36.01;28.78
51099;BME280;37146;48.210;16.234;2022-07-25T12:18:07;98433.16;;;35.92;29.42
51099;BME280;37146;48.210;16.234;2022-07-25T12:20:41;98426.53;;;35.71;29.13
51099;BME280;37146;48.210;16.234;2022-07-25T12:23:08;98414.41;;;34.70;29.88
51099;BME280;37146;48.210;16.234;2022-07-25T12:25:36;98415.25;;;35.04;30.37
51099;BME280;37146;48.210;16.234;2022-07-25T12:28:02;98416.53;;;34.96;30.17
51099;BME280;37146;48.210;16.234;2022-07-25T12:30:29;98406.91;;;34.53;30.51
51099;BME280;37146;48.210;16.234;2022-07-25T12:32:56;98400.50;;;34.52;31.16
51099;BME280;37146;48.210;16.234;2022-07-25T12:35:21;98417.53;;;34.27;30.80
51099;BME280;37146;48.210;16.234;2022-07-25T12:37:47;98403.06;;;34.25;31.58
51099;BME280;37146;48.210;16.234;2022-07-25T12:40:14;98398.50;;;34.48;31.00
51099;BME280;37146;48.210;16.234;2022-07-25T12:42:39;98390.66;;;34.45;31.27
51099;BME280;37146;48.210;16.234;2022-07-25T12:45:05;98387.47;;;34.53;30.58
51099;BME280;37146;48.210;16.234;2022-07-25T12:47:33;98388.06;;;34.55;30.89
51099;BME280;37146;48.210;16.234;2022-07-25T12:49:58;98381.69;;;34.55;30.92
51099;BME280;37146;48.210;16.234;2022-07-25T12:52:24;98387.56;;;34.58;31.68
51099;BME280;37146;48.210;16.234;2022-07-25T12:54:49;98375.03;;;34.56;31.82
51099;BME280;37146;48.210;16.234;2022-07-25T12:57:14;98380.22;;;34.86;31.28
51099;BME280;37146;48.210;16.234;2022-07-25T12:59:40;98364.06;;;34.83;30.83